Time;durP1;ratioP1;P1;durP2;ratioP2;P2;SDS_P1;SDS_P2;PMS_P1;PMS_P2;Temp;Humidity;BMP_temperature;BMP_pressure;BME280_temperature;BME280_humidity;BME280_pressure;Samples;Min_cycle;Max_cycle;Signal;HPM_P1;HPM_P2
2023/09/30 00:02:04;;;;;;;5.13;2.10;;;;;;;16.53;100.00;150221.22;4918189;28;20236;-56
2023/09/30 00:04:31;;;;;;;4.60;2.20;;;;;;;16.55;100.00;150226.22;4904463;28;20594;-56
2023/09/30 00:07:03;;;;;;;5.53;2.10;;;;;;;16.51;100.00;150216.22;4903398;28;20243;-56
2023/09/30 00:09:30;;;;;;;5.00;2.40;;;;;;;16.53;100.00;150222.44;4903265;28;20241;-56
2023/09/30 00:12:23;;;;;;;7.80;2.30;;;;;;;16.56;100.00;150228.72;4906284;29;20249;-56
2023/09/30 00:14:49;;;;;;;6.77;2.80;;;;;;;16.58;100.00;150233.72;4905658;28;20237;-56
2023/09/30 00:17:16;;;;;;;7.90;2.73;;;;;;;16.56;100.00;150228.72;4914364;28;20247;-55
2023/09/30 00:19:42;;;;;;;5.40;2.53;;;;;;;16.55;100.00;150224.94;4910518;28;20567;-56
2023/09/30 00:22:09;;;;;;;8.90;2.43;;;;;;;16.51;100.00;150217.44;4910885;29;20241;-56
2023/09/30 00:24:36;;;;;;;4.67;2.30;;;;;;;16.50;100.00;150214.94;4908870;28;20583;-56
2023/09/30 00:27:03;;;;;;;8.30;2.67;;;;;;;16.45;100.00;150202.44;4909822;28;20231;-56
2023/09/30 00:29:31;;;;;;;5.60;2.27;;;;;;;16.41;100.00;150191.22;4926152;28;20220;-56
2023/09/30 00:32:04;;;;;;;5.83;2.30;;;;;;;16.35;100.00;150177.50;4911098;29;20236;-56
2023/09/30 00:34:33;;;;;;;4.67;2.30;;;;;;;16.29;100.00;150162.50;4909502;28;20247;-55
2023/09/30 00:37:03;;;;;;;6.53;2.60;;;;;;;16.22;100.00;150147.50;4927231;29;20584;-57
2023/09/30 00:39:30;;;;;;;5.37;2.50;;;;;;;16.18;100.00;150136.22;4906870;28;20227;-57
2023/09/30 00:42:04;;;;;;;6.57;2.40;;;;;;;16.13;100.00;150125.00;4907331;29;20227;-56
2023/09/30 00:44:33;;;;;;;7.37;2.30;;;;;;;16.08;100.00;150112.50;4909082;29;20231;-57
2023/09/30 00:47:03;;;;;;;4.47;2.60;;;;;;;15.98;100.00;150088.72;4920715;29;20706;-56
2023/09/30 00:49:30;;;;;;;4.20;2.30;;;;;;;15.86;100.00;150058.72;4902943;28;20239;-56
2023/09/30 00:52:04;;;;;;;4.47;2.63;;;;;;;15.71;100.00;150023.72;4910499;28;20588;-56
2023/09/30 00:54:32;;;;;;;5.37;2.50;;;;;;;15.52;100.00;149976.25;4905955;28;20263;-56
2023/09/30 00:57:05;;;;;;;4.50;2.27;;;;;;;15.44;100.00;149958.75;4914566;29;20241;-57
2023/09/30 00:59:33;;;;;;;5.87;2.50;;;;;;;15.34;100.00;149935.03;4903685;28;20231;-54
2023/09/30 01:02:05;;;;;;;5.80;2.43;;;;;;;15.27;100.00;149917.56;4910393;29;20708;-57
2023/09/30 01:04:33;;;;;;;6.80;2.83;;;;;;;15.22;100.00;149903.78;4905021;28;20246;-59
2023/09/30 01:07:04;;;;;;;6.17;2.63;;;;;;;15.24;100.00;149908.78;4912091;28;20623;-56
2023/09/30 01:09:30;;;;;;;4.37;2.10;;;;;;;15.31;100.00;149926.28;4905194;28;20247;-57
2023/09/30 01:12:04;;;;;;;5.97;2.67;;;;;;;15.37;100.00;149941.28;4907564;29;20242;-56
2023/09/30 01:14:34;;;;;;;5.50;2.67;;;;;;;15.44;100.00;149957.47;4922466;28;20672;-56
2023/09/30 01:17:04;;;;;;;6.23;2.67;;;;;;;15.48;100.00;149968.75;4910272;29;20242;-56
2023/09/30 01:19:31;;;;;;;3.83;2.60;;;;;;;15.52;100.00;149977.47;4926041;29;20233;-54
2023/09/30 01:22:09;;;;;;;5.30;2.90;;;;;;;15.56;100.00;149986.25;4907887;29;20287;-56
2023/09/30 01:24:40;;;;;;;5.03;2.60;;;;;;;15.59;100.00;149993.75;4916585;28;20232;-56
2023/09/30 01:27:07;;;;;;;6.73;2.70;;;;;;;15.62;100.00;150001.25;4914468;28;20236;-57
2023/09/30 01:29:34;;;;;;;4.60;2.47;;;;;;;15.67;100.00;150013.72;4913049;28;20239;-57
2023/09/30 01:32:05;;;;;;;6.90;2.70;;;;;;;15.73;100.00;150027.47;4914726;29;20234;-56
2023/09/30 01:34:31;;;;;;;5.83;2.33;;;;;;;15.78;100.00;150039.94;4908897;28;21138;-56
2023/09/30 01:37:04;;;;;;;5.67;2.77;;;;;;;15.81;100.00;150046.22;4909733;29;20324;-56
2023/09/30 01:39:32;;;;;;;5.03;2.67;;;;;;;15.83;100.00;150052.44;4927818;28;20335;-56
2023/09/30 01:42:03;;;;;;;7.17;2.20;;;;;;;15.87;100.00;150061.28;4908179;29;20320;-57
2023/09/30 01:44:33;;;;;;;5.83;2.53;;;;;;;15.90;100.00;150070.00;4903591;28;20292;-56
2023/09/30 01:47:03;;;;;;;4.17;2.20;;;;;;;15.93;100.00;150077.50;4906235;29;20236;-58
2023/09/30 01:49:30;;;;;;;4.03;2.17;;;;;;;15.93;100.00;150076.22;4910518;28;20238;-56
2023/09/30 01:52:23;;;;;;;5.63;2.70;;;;;;;15.96;100.00;150082.50;4908179;28;20238;-58
2023/09/30 01:54:50;;;;;;;5.63;2.53;;;;;;;15.98;100.00;150087.50;4906597;29;20236;-56
2023/09/30 01:57:16;;;;;;;4.33;2.67;;;;;;;15.96;100.00;150083.72;4907104;29;20600;-57
2023/09/30 01:59:43;;;;;;;6.63;2.60;;;;;;;15.98;100.00;150087.50;4909432;29;20244;-56
2023/09/30 02:02:10;;;;;;;8.17;2.47;;;;;;;15.94;100.00;150078.72;4920692;29;20315;-56
2023/09/30 02:04:36;;;;;;;4.70;2.20;;;;;;;15.94;100.00;150078.72;4903279;28;20348;-56
2023/09/30 02:07:03;;;;;;;5.87;2.50;;;;;;;15.93;100.00;150076.22;4911563;29;20240;-56
2023/09/30 02:09:31;;;;;;;6.70;2.67;;;;;;;15.94;100.00;150080.00;4907295;29;20251;-56
2023/09/30 02:12:04;;;;;;;6.17;2.80;;;;;;;15.97;100.00;150086.22;4915992;29;20323;-56
2023/09/30 02:14:30;;;;;;;3.07;2.47;;;;;;;15.93;100.00;150077.50;4916754;29;20241;-55
2023/09/30 02:17:03;;;;;;;5.37;2.70;;;;;;;15.91;100.00;150071.22;4923347;29;20244;-55
2023/09/30 02:19:33;;;;;;;6.03;2.83;;;;;;;15.86;100.00;150059.94;4904631;28;20228;-57
2023/09/30 02:22:04;;;;;;;6.10;2.50;;;;;;;15.87;100.00;150061.28;4914132;29;20239;-57
2023/09/30 02:24:32;;;;;;;4.27;2.80;;;;;;;15.85;100.00;150056.22;4915311;29;20757;-56
2023/09/30 02:27:04;;;;;;;5.93;2.80;;;;;;;15.87;100.00;150061.28;4912926;29;20692;-55
2023/09/30 02:29:31;;;;;;;6.30;2.53;;;;;;;15.83;100.00;150052.44;4907199;29;20231;-57
2023/09/30 02:32:03;;;;;;;6.67;3.20;;;;;;;15.84;100.00;150053.72;4909382;29;20232;-56
2023/09/30 02:34:31;;;;;;;5.27;2.20;;;;;;;15.82;100.00;150049.94;4914799;28;20232;-57
2023/09/30 02:37:03;;;;;;;5.67;2.77;;;;;;;15.84;100.00;150054.94;4911625;29;20246;-56
2023/09/30 02:39:30;;;;;;;5.37;2.43;;;;;;;15.81;100.00;150046.22;4910223;29;20283;-56
2023/09/30 02:42:23;;;;;;;3.87;2.67;;;;;;;15.79;100.00;150043.72;4908528;28;20255;-57
2023/09/30 02:44:51;;;;;;;7.70;3.33;;;;;;;15.80;100.00;150044.97;4927065;28;20284;-56
2023/09/30 02:47:18;;;;;;;5.13;2.47;;;;;;;15.82;100.00;150048.72;4912363;28;20235;-56
2023/09/30 02:49:44;;;;;;;3.90;2.30;;;;;;;15.82;100.00;150048.72;4918139;28;20577;-56
2023/09/30 02:52:11;;;;;;;6.13;2.83;;;;;;;15.84;100.00;150053.72;4913320;29;20243;-56
2023/09/30 02:54:37;;;;;;;8.20;2.60;;;;;;;15.86;100.00;150059.94;4910509;29;20245;-57
2023/09/30 02:57:04;;;;;;;5.97;2.63;;;;;;;15.87;100.00;150062.50;4917754;29;20262;-56
2023/09/30 02:59:32;;;;;;;4.33;2.40;;;;;;;15.85;100.00;150057.44;4897816;28;20246;-56
2023/09/30 03:02:03;;;;;;;5.03;2.43;;;;;;;15.87;100.00;150061.28;4913858;29;20266;-57
2023/09/30 03:04:30;;;;;;;6.47;2.77;;;;;;;15.85;100.00;150056.22;4910979;29;20302;-56
2023/09/30 03:07:22;;;;;;;4.83;2.70;;;;;;;15.88;100.00;150065.00;4909311;28;20242;-56
2023/09/30 03:09:50;;;;;;;5.77;2.77;;;;;;;15.88;100.00;150063.78;4910231;28;20231;-56
2023/09/30 03:12:17;;;;;;;9.60;3.27;;;;;;;15.86;100.00;150059.94;4913655;28;20572;-55
2023/09/30 03:14:45;;;;;;;4.07;2.80;;;;;;;15.85;100.00;150056.22;4915128;28;20739;-56
2023/09/30 03:17:11;;;;;;;5.17;2.37;;;;;;;15.85;100.00;150056.22;4915968;29;20232;-56
2023/09/30 03:19:38;;;;;;;6.93;2.77;;;;;;;15.86;100.00;150058.72;4913393;28;20762;-56
2023/09/30 03:22:10;;;;;;;5.77;3.03;;;;;;;15.86;100.00;150059.94;4919905;28;20245;-57
2023/09/30 03:24:38;;;;;;;6.63;3.37;;;;;;;15.86;100.00;150058.72;4911725;28;20224;-55
2023/09/30 03:27:04;;;;;;;5.53;3.00;;;;;;;15.86;100.00;150058.72;4916238;28;20628;-57
2023/09/30 03:29:31;;;;;;;7.10;2.70;;;;;;;15.86;100.00;150059.94;4908366;29;20224;-55
2023/09/30 03:32:05;;;;;;;6.77;2.80;;;;;;;15.89;100.00;150066.28;5135065;23;20699;-56
2023/09/30 03:34:31;;;;;;;6.03;3.07;;;;;;;15.88;100.00;150063.78;4916113;29;20682;-58
2023/09/30 03:37:06;;;;;;;4.70;2.60;;;;;;;15.86;100.00;150058.72;4919548;28;20241;-57
2023/09/30 03:39:33;;;;;;;6.27;3.00;;;;;;;15.79;100.00;150042.44;4933302;29;20317;-57
2023/09/30 03:42:04;;;;;;;6.13;3.43;;;;;;;15.78;100.00;150039.94;4916834;28;20250;-57
2023/09/30 03:44:31;;;;;;;6.23;3.50;;;;;;;15.75;100.00;150033.72;4914645;28;20240;-57
2023/09/30 03:47:05;;;;;;;5.77;2.83;;;;;;;15.75;100.00;150032.47;4921444;28;20326;-57
2023/09/30 03:49:31;;;;;;;5.67;2.83;;;;;;;15.76;100.00;150034.97;4920163;28;20926;-58
2023/09/30 03:52:04;;;;;;;6.63;3.00;;;;;;;15.76;100.00;150034.97;4920078;28;20232;-57
2023/09/30 03:54:31;;;;;;;6.80;2.83;;;;;;;15.75;100.00;150033.72;4915223;28;20324;-57
2023/09/30 03:57:03;;;;;;;5.33;3.03;;;;;;;15.74;100.00;150031.22;4916204;29;20793;-57
2023/09/30 03:59:31;;;;;;;6.87;2.93;;;;;;;15.75;100.00;150033.72;4915456;28;20280;-57
2023/09/30 04:02:06;;;;;;;7.60;2.83;;;;;;;15.77;100.00;150037.47;4917431;28;20262;-56
2023/09/30 04:04:34;;;;;;;7.17;2.90;;;;;;;15.75;100.00;150033.72;4916323;28;20699;-55
2023/09/30 04:07:05;;;;;;;6.70;2.90;;;;;;;15.77;100.00;150037.47;4919799;29;20250;-57
2023/09/30 04:09:32;;;;;;;5.47;2.40;;;;;;;15.79;100.00;150042.44;4915819;28;20700;-57
2023/09/30 04:12:04;;;;;;;7.80;3.20;;;;;;;15.78;100.00;150041.22;4916968;29;20243;-57
2023/09/30 04:14:30;;;;;;;6.70;2.80;;;;;;;15.77;100.00;150038.72;4917848;28;20235;-57
2023/09/30 04:17:23;;;;;;;5.90;2.80;;;;;;;15.77;100.00;150038.72;4916284;28;20359;-57
2023/09/30 04:19:51;;;;;;;5.47;3.10;;;;;;;15.76;100.00;150036.22;4918487;28;20304;-56
2023/09/30 04:22:18;;;;;;;5.43;2.90;;;;;;;15.72;100.00;150026.22;4914934;28;20244;-57
2023/09/30 04:24:45;;;;;;;11.37;3.03;;;;;;;15.71;100.00;150023.72;4916331;29;20246;-57
2023/09/30 04:27:12;;;;;;;6.33;3.50;;;;;;;15.68;100.00;150016.22;4918685;29;20244;-57
2023/09/30 04:29:39;;;;;;;8.00;3.07;;;;;;;15.68;100.00;150016.22;4915880;28;20235;-57
2023/09/30 04:32:06;;;;;;;4.90;2.57;;;;;;;15.69;100.00;150017.47;4919922;28;20241;-57
2023/09/30 04:34:34;;;;;;;4.00;2.63;;;;;;;15.68;100.00;150016.22;4917596;28;20239;-57
2023/09/30 04:37:03;;;;;;;5.10;2.50;;;;;;;15.65;100.00;150009.97;4918105;29;20569;-57
2023/09/30 04:39:30;;;;;;;4.73;2.97;;;;;;;15.65;100.00;150008.75;4915255;28;20644;-57
2023/09/30 04:42:04;;;;;;;6.27;2.70;;;;;;;15.63;100.00;150004.97;4917860;29;20294;-57
2023/09/30 04:44:38;;;;;;;6.73;3.03;;;;;;;15.63;100.00;150004.97;4916758;28;20233;-57
2023/09/30 04:47:05;;;;;;;8.07;3.43;;;;;;;15.66;100.00;150011.25;4918358;28;20370;-56
2023/09/30 04:49:32;;;;;;;6.50;2.60;;;;;;;15.61;100.00;149998.75;4917141;28;20597;-57
2023/09/30 04:52:07;;;;;;;6.23;2.80;;;;;;;15.56;100.00;149986.25;4917938;28;20238;-57
2023/09/30 04:54:35;;;;;;;7.17;2.93;;;;;;;15.53;100.00;149979.97;4916616;28;20254;-55
2023/09/30 04:57:03;;;;;;;7.17;3.33;;;;;;;15.47;100.00;149966.25;4914291;29;20240;-57
2023/09/30 04:59:30;;;;;;;7.87;2.77;;;;;;;15.41;100.00;149950.00;4915932;28;20215;-57
2023/09/30 05:02:22;;;;;;;5.77;2.17;;;;;;;15.34;100.00;149933.78;4915813;28;20322;-57
2023/09/30 05:04:49;;;;;;;5.47;2.90;;;;;;;15.28;100.00;149918.78;4920672;28;20233;-55
2023/09/30 05:07:17;;;;;;;4.90;2.90;;;;;;;15.25;100.00;149911.28;4915070;28;20238;-58
2023/09/30 05:09:44;;;;;;;6.63;2.60;;;;;;;15.18;100.00;149896.28;4923164;28;20244;-57
2023/09/30 05:12:11;;;;;;;6.23;2.73;;;;;;;15.09;100.00;149873.81;4918992;28;20738;-57
2023/09/30 05:14:38;;;;;;;6.70;2.90;;;;;;;15.01;100.00;149855.09;4915495;29;20231;-57
2023/09/30 05:17:05;;;;;;;7.57;2.70;;;;;;;14.97;100.00;149843.81;4914674;29;20321;-57
2023/09/30 05:19:32;;;;;;;7.37;3.00;;;;;;;14.91;100.00;149831.34;4915746;28;20238;-54
2023/09/30 05:22:03;;;;;;;6.23;2.87;;;;;;;14.92;100.00;149832.63;4919868;28;20744;-57
2023/09/30 05:24:31;;;;;;;7.37;2.97;;;;;;;14.90;100.00;149828.84;4914306;29;20224;-57
2023/09/30 05:27:03;;;;;;;8.87;3.23;;;;;;;14.84;100.00;149813.84;4915405;28;20268;-57
2023/09/30 05:29:33;;;;;;;5.87;2.90;;;;;;;14.78;100.00;149797.63;4915962;28;20559;-57
2023/09/30 05:32:03;;;;;;;6.65;3.00;;;;;;;14.79;100.00;149800.13;4919646;28;20814;-55
2023/09/30 05:34:30;;;;;;;7.03;3.53;;;;;;;14.74;100.00;149790.16;4914373;28;20238;-57
2023/09/30 05:37:22;;;;;;;7.17;3.77;;;;;;;14.68;100.00;149773.88;4914147;28;20329;-58
2023/09/30 05:39:50;;;;;;;7.50;3.20;;;;;;;14.66;100.00;149770.13;4919599;28;20703;-57
2023/09/30 05:42:18;;;;;;;11.23;3.83;;;;;;;14.63;100.00;149761.41;4914894;28;20238;-57
2023/09/30 05:44:45;;;;;;;7.73;3.80;;;;;;;14.58;100.00;149751.41;4918173;28;20678;-57
2023/09/30 05:47:12;;;;;;;8.37;3.93;;;;;;;14.54;100.00;149740.16;4920420;28;20371;-57
2023/09/30 05:49:39;;;;;;;7.63;3.77;;;;;;;14.46;100.00;149722.66;4910542;28;20237;-58
2023/09/30 05:52:06;;;;;;;10.67;3.73;;;;;;;14.43;100.00;149713.94;4918179;28;20246;-57
2023/09/30 05:54:32;;;;;;;7.23;3.93;;;;;;;14.42;100.00;149712.69;4913963;28;20325;-57
2023/09/30 05:57:04;;;;;;;8.67;4.10;;;;;;;14.46;100.00;149722.66;4918755;28;20317;-57
2023/09/30 05:59:31;;;;;;;6.93;4.10;;;;;;;14.45;100.00;149718.94;4914766;28;20320;-58
2023/09/30 06:02:04;;;;;;;12.10;3.93;;;;;;;14.43;100.00;149715.16;4920659;28;21172;-57
2023/09/30 06:04:33;;;;;;;8.17;3.43;;;;;;;14.44;100.00;149717.66;4912322;28;20634;-57
2023/09/30 06:07:03;;;;;;;7.67;3.70;;;;;;;14.38;100.00;149701.47;4919350;28;20301;-57
2023/09/30 06:09:30;;;;;;;5.93;3.70;;;;;;;14.37;100.00;149698.97;4914293;29;20248;-57
2023/09/30 06:12:06;;;;;;;9.93;3.80;;;;;;;14.33;100.00;149690.19;4918668;28;20322;-57
2023/09/30 06:14:32;;;;;;;9.07;4.20;;;;;;;14.38;100.00;149701.47;4913742;28;20573;-57
2023/09/30 06:17:03;;;;;;;9.30;3.90;;;;;;;14.42;100.00;149712.69;4916301;29;20230;-57
2023/09/30 06:19:30;;;;;;;7.00;3.43;;;;;;;14.45;100.00;149718.94;4913465;28;20589;-57
2023/09/30 06:22:03;;;;;;;7.80;4.23;;;;;;;14.49;100.00;149727.66;4917218;29;20903;-57
2023/09/30 06:24:29;;;;;;;5.83;3.57;;;;;;;14.51;100.00;149733.94;4915607;28;20308;-57
2023/09/30 06:27:00;;;;;;;6.43;3.57;;;;;;;14.48;100.00;149726.44;4918038;28;20544;-56
2023/09/30 06:29:28;;;;;;;7.10;3.27;;;;;;;14.53;100.00;149737.66;4915397;28;20240;-56
2023/09/30 06:31:55;;;;;;;7.43;3.00;;;;;;;14.61;100.00;149757.63;4916951;29;20254;-58
2023/09/30 06:34:22;;;;;;;5.00;3.07;;;;;;;14.80;100.00;149803.91;4914404;28;20718;-57
2023/09/30 06:36:48;;;;;;;6.87;3.27;;;;;;;14.98;100.00;149846.31;4917884;28;20224;-57
2023/09/30 06:39:15;;;;;;;6.70;3.23;;;;;;;15.11;100.00;149878.81;4914897;28;20291;-57
2023/09/30 06:41:43;;;;;;;6.70;3.20;;;;;;;15.24;100.00;149908.78;4921334;28;20238;-57
2023/09/30 06:44:12;;;;;;;5.63;3.00;;;;;;;15.34;100.00;149933.78;4927393;29;20246;-57
2023/09/30 06:46:40;;;;;;;5.50;2.93;;;;;;;15.43;100.00;149954.97;4918236;28;20230;-56
2023/09/30 06:49:07;;;;;;;9.80;3.93;;;;;;;15.49;100.00;149971.25;4921966;28;20700;-57
2023/09/30 06:51:33;;;;;;;5.13;3.47;;;;;;;15.56;100.00;149986.25;4917669;28;20266;-58
2023/09/30 06:54:00;;;;;;;6.17;3.50;;;;;;;15.53;100.00;149978.75;4919758;28;20224;-57
2023/09/30 06:56:28;;;;;;;8.53;3.73;;;;;;;15.49;100.00;149971.25;4917345;28;20715;-57
2023/09/30 06:58:54;;;;;;;8.40;3.80;;;;;;;15.45;100.00;149959.97;4922100;28;20243;-56
2023/09/30 07:01:21;;;;;;;7.30;3.67;;;;;;;15.43;100.00;149956.25;4919298;28;20246;-57
2023/09/30 07:03:49;;;;;;;6.57;3.33;;;;;;;15.40;100.00;149947.50;4919052;28;20237;-57
2023/09/30 07:06:23;;;;;;;6.47;3.50;;;;;;;15.41;100.00;149951.25;4916247;28;20242;-57
2023/09/30 07:08:50;;;;;;;5.20;3.03;;;;;;;15.50;100.00;149973.75;4920169;28;20269;-57
2023/09/30 07:11:17;;;;;;;7.83;3.50;;;;;;;15.55;100.00;149983.75;4914503;28;20244;-56
2023/09/30 07:13:43;;;;;;;5.93;3.27;;;;;;;15.71;100.00;150023.72;4917666;28;20251;-57
2023/09/30 07:16:10;;;;;;;10.20;3.23;;;;;;;15.77;100.00;150037.47;4919063;28;20236;-56
2023/09/30 07:18:36;;;;;;;7.47;3.40;;;;;;;15.89;100.00;150066.28;4916767;28;20715;-57
2023/09/30 07:21:04;;;;;;;7.50;3.60;;;;;;;16.13;100.00;150123.72;4920524;29;20255;-56
2023/09/30 07:23:31;;;;;;;9.23;3.80;;;;;;;16.18;100.00;150137.50;4914836;28;20234;-57
2023/09/30 07:25:59;;;;;;;6.10;3.23;;;;;;;16.32;100.00;150170.00;4920591;28;20260;-58
2023/09/30 07:28:25;;;;;;;6.57;3.10;;;;;;;16.44;100.00;150198.72;4915988;28;20239;-57
2023/09/30 07:30:52;;;;;;;5.13;3.80;;;;;;;16.37;100.00;150183.72;4919904;28;20760;-56
2023/09/30 07:33:19;;;;;;;8.17;3.97;;;;;;;16.42;100.00;150193.72;4918257;28;20231;-57
2023/09/30 07:35:45;;;;;;;6.87;3.87;;;;;;;16.37;100.00;150182.50;4916642;29;20266;-57
2023/09/30 07:38:13;;;;;;;5.67;3.80;;;;;;;16.48;100.00;150208.72;4926846;29;20884;-57
2023/09/30 07:40:40;;;;;;;9.30;3.83;;;;;;;16.54;100.00;150223.72;4920036;28;20231;-58
2023/09/30 07:43:06;;;;;;;7.90;4.23;;;;;;;16.48;100.00;150209.94;4919452;28;21032;-56
2023/09/30 07:45:33;;;;;;;6.43;3.53;;;;;;;16.59;100.00;150234.94;4918129;28;21860;-57
2023/09/30 07:47:59;;;;;;;5.80;3.50;;;;;;;16.70;100.00;150262.47;4919889;29;20245;-57
2023/09/30 07:50:26;;;;;;;6.50;3.50;;;;;;;16.74;100.00;150272.47;4920957;28;20678;-57
2023/09/30 07:52:53;;;;;;;5.43;2.93;;;;;;;16.81;100.00;150289.97;4918080;28;20242;-57
2023/09/30 07:55:21;;;;;;;7.27;3.40;;;;;;;16.77;100.00;150278.75;4915442;28;20236;-57
2023/09/30 07:57:47;;;;;;;6.77;3.50;;;;;;;16.78;100.00;150281.25;4919524;28;20255;-56
2023/09/30 08:00:15;;;;;;;9.60;3.90;;;;;;;16.82;100.00;150291.25;4919806;28;20229;-57
2023/09/30 08:02:42;;;;;;;6.33;3.70;;;;;;;16.85;100.00;150298.75;4918986;28;20244;-57
2023/09/30 08:05:10;;;;;;;10.53;4.03;;;;;;;16.78;100.00;150282.47;4919667;28;20294;-57
2023/09/30 08:07:37;;;;;;;9.97;5.17;;;;;;;16.59;100.00;150234.94;4916435;28;20231;-57
2023/09/30 08:10:05;;;;;;;8.20;4.77;;;;;;;16.62;100.00;150243.72;4921530;28;20233;-57
2023/09/30 08:12:33;;;;;;;7.37;4.07;;;;;;;16.76;100.00;150276.22;4919270;28;20710;-57
2023/09/30 08:14:59;;;;;;;7.43;3.53;;;;;;;16.90;100.00;150311.25;4917386;28;20226;-57
2023/09/30 08:17:26;;;;;;;6.47;3.60;;;;;;;17.00;100.00;150333.75;4915580;28;20240;-57
2023/09/30 08:19:53;;;;;;;9.07;3.70;;;;;;;17.08;100.00;150353.78;4916706;28;20230;-57
2023/09/30 08:22:19;;;;;;;8.47;3.93;;;;;;;17.21;100.00;150385.06;4915923;28;20227;-57
2023/09/30 08:24:46;;;;;;;6.57;3.77;;;;;;;17.34;100.00;150416.31;4917890;28;20263;-57
2023/09/30 08:27:13;;;;;;;5.87;2.87;;;;;;;17.35;100.00;150418.81;4915904;28;20239;-57
2023/09/30 08:29:41;;;;;;;8.43;3.50;;;;;;;17.38;100.00;150427.59;4913224;29;20235;-57
2023/09/30 08:32:08;;;;;;;8.03;3.40;;;;;;;17.47;100.00;150448.81;4918730;28;20238;-57
2023/09/30 08:34:35;;;;;;;5.47;3.40;;;;;;;17.45;100.00;150442.59;4914818;28;20522;-56
2023/09/30 08:37:03;;;;;;;9.67;3.93;;;;;;;17.48;100.00;150450.09;4917682;28;20263;-57
2023/09/30 08:39:30;;;;;;;5.73;3.37;;;;;;;17.58;100.00;150473.84;4916243;29;20575;-57
2023/09/30 08:42:06;;;;;;;7.73;3.47;;;;;;;17.65;100.00;150492.59;4915437;28;20295;-57
2023/09/30 08:44:33;;;;;;;7.70;3.40;;;;;;;17.68;99.33;150500.09;4913896;28;22377;-57
2023/09/30 08:47:06;;;;;;;7.90;3.50;;;;;;;17.71;97.41;150507.59;4916558;28;20310;-57
2023/09/30 08:49:35;;;;;;;6.23;3.50;;;;;;;17.69;98.00;150501.38;4915978;28;20227;-57
2023/09/30 08:52:05;;;;;;;7.47;3.37;;;;;;;17.82;98.18;150532.63;4916987;28;20239;-57
2023/09/30 08:54:32;;;;;;;8.50;3.30;;;;;;;17.90;98.55;150552.66;4915189;28;20242;-57
2023/09/30 08:57:04;;;;;;;8.93;3.80;;;;;;;18.04;97.55;150586.47;4919872;28;20229;-57
2023/09/30 08:59:32;;;;;;;5.70;3.47;;;;;;;18.20;95.38;150624.00;4916969;28;20235;-55
2023/09/30 09:02:09;;;;;;;5.07;3.00;;;;;;;18.14;94.37;150611.47;4917460;28;20236;-56
2023/09/30 09:04:36;;;;;;;6.37;3.60;;;;;;;18.13;92.92;150608.97;4915467;28;20240;-57
2023/09/30 09:07:03;;;;;;;7.03;3.37;;;;;;;18.08;93.72;150596.47;4919231;29;20231;-56
2023/09/30 09:09:32;;;;;;;7.43;3.67;;;;;;;18.12;94.92;150605.25;4915766;28;20220;-56
2023/09/30 09:12:04;;;;;;;9.17;3.87;;;;;;;18.05;95.52;150588.97;4917649;28;20232;-57
2023/09/30 09:14:40;;;;;;;6.93;3.60;;;;;;;18.28;93.62;150644.03;4912644;28;20232;-57
2023/09/30 09:17:10;;;;;;;8.67;4.00;;;;;;;18.30;92.80;150649.03;4918570;28;20287;-59
2023/09/30 09:19:37;;;;;;;9.37;3.83;;;;;;;18.35;92.30;150661.53;4913773;28;20243;-57
2023/09/30 09:22:06;;;;;;;7.53;3.90;;;;;;;18.31;91.58;150650.31;4916174;28;20831;-57
2023/09/30 09:24:34;;;;;;;7.57;4.27;;;;;;;18.24;91.05;150634.00;4913257;28;20232;-57
2023/09/30 09:27:08;;;;;;;7.77;4.57;;;;;;;18.21;93.70;150627.78;4920873;28;20787;-55
2023/09/30 09:29:36;;;;;;;7.77;4.70;;;;;;;18.35;93.71;150661.53;4916683;28;20248;-57
2023/09/30 09:32:15;;;;;;;8.83;3.50;;;;;;;18.48;91.97;150691.59;4916970;29;20711;-55
2023/09/30 09:34:44;;;;;;;7.13;3.80;;;;;;;18.57;92.01;150715.34;4916136;28;20234;-58
2023/09/30 09:37:17;;;;;;;10.27;3.40;;;;;;;18.78;90.81;150765.41;4914258;28;20298;-58
2023/09/30 09:39:52;;;;;;;7.40;3.90;;;;;;;18.52;89.98;150701.59;4915924;28;20240;-58
2023/09/30 09:42:26;;;;;;;7.40;3.70;;;;;;;18.63;91.30;150729.13;4915545;28;20237;-58
2023/09/30 09:44:54;;;;;;;7.97;4.13;;;;;;;18.66;90.87;150735.38;4917721;28;20230;-58
2023/09/30 09:47:24;;;;;;;6.70;3.90;;;;;;;18.81;88.79;150771.69;4914132;28;20220;-59
2023/09/30 09:49:51;;;;;;;6.73;3.17;;;;;;;18.79;88.49;150767.91;4917649;28;20245;-57
2023/09/30 09:52:19;;;;;;;7.10;3.40;;;;;;;18.94;87.00;150804.25;4912784;28;20697;-58
2023/09/30 09:54:46;;;;;;;5.53;3.10;;;;;;;18.79;87.46;150766.69;4917279;28;20239;-57
2023/09/30 09:57:14;;;;;;;7.83;3.77;;;;;;;18.65;88.24;150734.13;4917477;29;20229;-57
2023/09/30 09:59:42;;;;;;;6.73;3.60;;;;;;;18.74;88.50;150755.41;4916766;29;20309;-58
2023/09/30 10:02:14;;;;;;;7.10;3.60;;;;;;;18.64;89.94;150731.63;4915273;28;20243;-55
2023/09/30 10:04:43;;;;;;;7.90;3.00;;;;;;;18.63;89.39;150727.84;4917499;28;20241;-57
2023/09/30 10:07:14;;;;;;;6.43;3.07;;;;;;;18.76;89.55;150759.19;4917552;28;20397;-59
2023/09/30 10:09:45;;;;;;;5.30;3.10;;;;;;;18.70;88.84;150745.38;4928022;28;20261;-57
2023/09/30 10:12:13;;;;;;;6.63;3.30;;;;;;;19.03;86.64;150825.56;4917080;28;20753;-58
2023/09/30 10:14:39;;;;;;;9.10;2.97;;;;;;;19.22;85.61;150871.88;4915628;29;20229;-57
2023/09/30 10:17:06;;;;;;;4.13;2.70;;;;;;;19.35;80.53;150901.91;4920910;28;20241;-58
2023/09/30 10:19:33;;;;;;;4.47;2.57;;;;;;;19.26;80.46;150880.66;4916180;28;20324;-58
2023/09/30 10:22:24;;;;;;;4.73;2.70;;;;;;;19.05;81.73;150830.56;4919963;28;20239;-58
2023/09/30 10:24:56;;;;;;;4.47;2.40;;;;;;;19.01;83.26;150821.81;4917303;28;20322;-58
2023/09/30 10:27:34;;;;;;;3.53;2.10;;;;;;;19.25;81.24;150878.16;4917725;28;20234;-58
2023/09/30 10:30:10;;;;;;;4.33;2.20;;;;;;;19.23;82.42;150874.38;4918198;28;20741;-56
2023/09/30 10:33:14;;;;;;;4.30;2.23;;;;;;;19.37;82.65;150906.94;4916914;29;20249;-54
2023/09/30 10:35:48;;;;;;;4.33;1.97;;;;;;;18.99;80.96;150815.53;4911972;29;20276;-56
2023/09/30 10:38:41;;;;;;;5.27;1.97;;;;;;;19.45;79.03;150926.97;4920014;28;20233;-55
2023/09/30 10:41:09;;;;;;;4.70;2.90;;;;;;;19.54;79.91;150949.50;4921606;29;20229;-56
2023/09/30 10:43:37;;;;;;;7.60;2.70;;;;;;;19.35;79.51;150901.91;4916782;28;20264;-57
2023/09/30 10:46:07;;;;;;;5.83;3.53;;;;;;;19.41;79.92;150918.22;4920632;29;20238;-57
2023/09/30 10:48:37;;;;;;;7.50;3.27;;;;;;;19.43;79.66;150923.22;4920335;28;20248;-56
2023/09/30 10:51:15;;;;;;;4.57;2.47;;;;;;;19.37;79.96;150906.94;4920740;28;20234;-57
2023/09/30 10:53:47;;;;;;;7.17;3.40;;;;;;;19.26;81.27;150881.88;4917763;28;20261;-57
2023/09/30 10:56:15;;;;;;;6.47;3.23;;;;;;;19.29;81.39;150888.16;4915651;28;20721;-57
2023/09/30 10:58:43;;;;;;;5.27;2.83;;;;;;;19.39;80.21;150913.22;4921587;29;20335;-57
2023/09/30 11:01:09;;;;;;;6.37;3.50;;;;;;;19.53;77.53;150945.78;4918098;28;20236;-56
2023/09/30 11:03:36;;;;;;;6.80;2.90;;;;;;;19.97;73.42;151052.25;4918454;28;20230;-55
2023/09/30 11:06:04;;;;;;;7.20;2.97;;;;;;;20.19;71.80;151107.34;4915827;28;20302;-55
2023/09/30 11:08:31;;;;;;;6.03;2.93;;;;;;;20.09;74.20;151081.06;4916138;28;20221;-63
2023/09/30 11:11:00;;;;;;;6.07;3.00;;;;;;;20.16;71.38;151098.59;4918336;28;20232;-53
2023/09/30 11:13:34;;;;;;;6.50;2.83;;;;;;;20.17;71.04;151101.09;4914766;28;20238;-61
2023/09/30 11:16:02;;;;;;;8.97;3.00;;;;;;;20.31;70.97;151134.91;4918828;28;20234;-59
2023/09/30 11:18:29;;;;;;;7.40;2.80;;;;;;;20.56;72.61;151196.31;4914363;28;20238;-60
2023/09/30 11:21:05;;;;;;;6.43;2.80;;;;;;;20.57;69.73;151197.56;4920997;28;20235;-54
2023/09/30 11:23:32;;;;;;;6.93;3.60;;;;;;;20.52;67.79;151185.03;4917279;28;20223;-61
2023/09/30 11:26:00;;;;;;;8.30;3.53;;;;;;;20.15;69.64;151097.31;4918610;28;20233;-57
2023/09/30 11:28:37;;;;;;;7.20;3.60;;;;;;;20.54;68.25;151190.03;4917919;28;20717;-59
2023/09/30 11:31:03;;;;;;;10.03;3.07;;;;;;;20.67;68.95;151221.38;4919178;28;20238;-60